sensor_id;sensor_type;location;lat;lon;timestamp;P1;durP1;ratioP1;P2;durP2;ratioP2
19903;SDS011;10114;50.970;4.962;2022-11-20T00:01:19;27.38;;;13.80;;
19903;SDS011;10114;50.970;4.962;2022-11-20T00:03:46;29.75;;;13.98;;
19903;SDS011;10114;50.970;4.962;2022-11-20T00:06:13;26.23;;;13.65;;
19903;SDS011;10114;50.970;4.962;2022-11-20T00:08:40;28.08;;;14.32;;
19903;SDS011;10114;50.970;4.962;2022-11-20T00:11:10;25.33;;;12.98;;
19903;SDS011;10114;50.970;4.962;2022-11-20T00:13:36;29.52;;;13.77;;
19903;SDS011;10114;50.970;4.962;2022-11-20T00:16:03;28.50;;;14.70;;
19903;SDS011;10114;50.970;4.962;2022-11-20T00:18:30;28.27;;;14.40;;
19903;SDS011;10114;50.970;4.962;2022-11-20T00:21:03;29.38;;;14.10;;
19903;SDS011;10114;50.970;4.962;2022-11-20T00:23:29;32.80;;;13.82;;
19903;SDS011;10114;50.970;4.962;2022-11-20T00:25:55;30.83;;;14.98;;
19903;SDS011;10114;50.970;4.962;2022-11-20T00:28:21;28.00;;;14.13;;
19903;SDS011;10114;50.970;4.962;2022-11-20T00:30:47;30.00;;;13.70;;
19903;SDS011;10114;50.970;4.962;2022-11-20T00:33:13;27.25;;;13.20;;
19903;SDS011;10114;50.970;4.962;2022-11-20T00:35:39;33.20;;;13.35;;
19903;SDS011;10114;50.970;4.962;2022-11-20T00:38:05;29.67;;;14.10;;
19903;SDS011;10114;50.970;4.962;2022-11-20T00:40:31;29.50;;;14.35;;
19903;SDS011;10114;50.970;4.962;2022-11-20T00:42:57;28.38;;;14.88;;
19903;SDS011;10114;50.970;4.962;2022-11-20T00:45:23;36.03;;;14.45;;
19903;SDS011;10114;50.970;4.962;2022-11-20T00:47:49;27.95;;;14.82;;
19903;SDS011;10114;50.970;4.962;2022-11-20T00:50:15;33.42;;;15.93;;
19903;SDS011;10114;50.970;4.962;2022-11-20T00:52:41;37.33;;;15.60;;
19903;SDS011;10114;50.970;4.962;2022-11-20T00:55:07;30.58;;;14.93;;
19903;SDS011;10114;50.970;4.962;2022-11-20T00:57:33;31.83;;;15.73;;
19903;SDS011;10114;50.970;4.962;2022-11-20T00:59:59;31.23;;;15.52;;
19903;SDS011;10114;50.970;4.962;2022-11-20T01:02:25;32.70;;;14.90;;
19903;SDS011;10114;50.970;4.962;2022-11-20T01:04:51;32.90;;;16.17;;
19903;SDS011;10114;50.970;4.962;2022-11-20T01:07:17;31.48;;;16.40;;
19903;SDS011;10114;50.970;4.962;2022-11-20T01:09:43;34.67;;;16.27;;
19903;SDS011;10114;50.970;4.962;2022-11-20T01:12:09;32.08;;;15.95;;
19903;SDS011;10114;50.970;4.962;2022-11-20T01:14:35;38.15;;;16.83;;
19903;SDS011;10114;50.970;4.962;2022-11-20T01:17:01;35.35;;;16.75;;
19903;SDS011;10114;50.970;4.962;2022-11-20T01:19:27;35.85;;;16.75;;
19903;SDS011;10114;50.970;4.962;2022-11-20T01:21:53;34.08;;;16.35;;
19903;SDS011;10114;50.970;4.962;2022-11-20T01:24:20;38.97;;;17.95;;
19903;SDS011;10114;50.970;4.962;2022-11-20T01:26:47;36.88;;;17.45;;
19903;SDS011;10114;50.970;4.962;2022-11-20T01:29:14;39.58;;;18.13;;
19903;SDS011;10114;50.970;4.962;2022-11-20T01:31:41;37.78;;;18.08;;
19903;SDS011;10114;50.970;4.962;2022-11-20T01:34:10;39.45;;;18.23;;
19903;SDS011;10114;50.970;4.962;2022-11-20T01:36:37;38.65;;;17.38;;
19903;SDS011;10114;50.970;4.962;2022-11-20T01:39:13;35.55;;;16.95;;
19903;SDS011;10114;50.970;4.962;2022-11-20T01:41:40;33.50;;;16.92;;
19903;SDS011;10114;50.970;4.962;2022-11-20T01:47:06;36.60;;;18.02;;
19903;SDS011;10114;50.970;4.962;2022-11-20T01:49:35;35.58;;;16.70;;
19903;SDS011;10114;50.970;4.962;2022-11-20T01:52:04;36.33;;;16.45;;
19903;SDS011;10114;50.970;4.962;2022-11-20T01:54:33;33.70;;;16.20;;
19903;SDS011;10114;50.970;4.962;2022-11-20T01:57:00;36.00;;;16.27;;
19903;SDS011;10114;50.970;4.962;2022-11-20T01:59:26;32.72;;;15.88;;
19903;SDS011;10114;50.970;4.962;2022-11-20T02:01:53;30.67;;;14.80;;
19903;SDS011;10114;50.970;4.962;2022-11-20T02:04:20;31.58;;;15.88;;
19903;SDS011;10114;50.970;4.962;2022-11-20T02:06:50;29.85;;;16.10;;
19903;SDS011;10114;50.970;4.962;2022-11-20T02:09:17;30.25;;;14.23;;
19903;SDS011;10114;50.970;4.962;2022-11-20T02:11:43;31.27;;;15.65;;
19903;SDS011;10114;50.970;4.962;2022-11-20T02:14:09;36.92;;;15.50;;
19903;SDS011;10114;50.970;4.962;2022-11-20T02:16:36;33.50;;;15.82;;
19903;SDS011;10114;50.970;4.962;2022-11-20T02:19:04;34.05;;;15.52;;
19903;SDS011;10114;50.970;4.962;2022-11-20T02:24:08;34.85;;;14.88;;
19903;SDS011;10114;50.970;4.962;2022-11-20T02:26:39;29.20;;;13.45;;
19903;SDS011;10114;50.970;4.962;2022-11-20T02:29:06;31.15;;;14.20;;
19903;SDS011;10114;50.970;4.962;2022-11-20T02:31:36;28.42;;;13.65;;
19903;SDS011;10114;50.970;4.962;2022-11-20T02:34:03;30.80;;;14.15;;
19903;SDS011;10114;50.970;4.962;2022-11-20T02:36:29;28.20;;;14.77;;
19903;SDS011;10114;50.970;4.962;2022-11-20T02:38:56;29.73;;;14.43;;
19903;SDS011;10114;50.970;4.962;2022-11-20T02:41:29;34.25;;;14.20;;
19903;SDS011;10114;50.970;4.962;2022-11-20T02:43:55;31.98;;;15.00;;
19903;SDS011;10114;50.970;4.962;2022-11-20T02:46:21;27.38;;;13.93;;
19903;SDS011;10114;50.970;4.962;2022-11-20T02:48:47;30.30;;;13.80;;
19903;SDS011;10114;50.970;4.962;2022-11-20T02:51:13;26.48;;;13.93;;
19903;SDS011;10114;50.970;4.962;2022-11-20T02:53:40;35.30;;;15.20;;
19903;SDS011;10114;50.970;4.962;2022-11-20T02:56:06;27.13;;;13.25;;
19903;SDS011;10114;50.970;4.962;2022-11-20T02:58:32;29.90;;;14.57;;
19903;SDS011;10114;50.970;4.962;2022-11-20T03:00:58;37.80;;;14.77;;
19903;SDS011;10114;50.970;4.962;2022-11-20T03:03:24;32.55;;;14.25;;
19903;SDS011;10114;50.970;4.962;2022-11-20T03:05:50;33.53;;;15.75;;
19903;SDS011;10114;50.970;4.962;2022-11-20T03:08:16;30.45;;;13.52;;
19903;SDS011;10114;50.970;4.962;2022-11-20T03:10:42;34.38;;;15.52;;
19903;SDS011;10114;50.970;4.962;2022-11-20T03:13:08;30.55;;;15.40;;
19903;SDS011;10114;50.970;4.962;2022-11-20T03:15:35;34.72;;;15.23;;
19903;SDS011;10114;50.970;4.962;2022-11-20T03:18:01;29.38;;;14.57;;
19903;SDS011;10114;50.970;4.962;2022-11-20T03:20:27;32.35;;;14.40;;
19903;SDS011;10114;50.970;4.962;2022-11-20T03:22:53;32.30;;;14.68;;
19903;SDS011;10114;50.970;4.962;2022-11-20T03:25:20;30.50;;;14.45;;
19903;SDS011;10114;50.970;4.962;2022-11-20T03:27:46;29.90;;;15.00;;
19903;SDS011;10114;50.970;4.962;2022-11-20T03:30:12;29.80;;;14.63;;
19903;SDS011;10114;50.970;4.962;2022-11-20T03:32:38;30.17;;;14.40;;
19903;SDS011;10114;50.970;4.962;2022-11-20T03:35:04;33.03;;;14.32;;
19903;SDS011;10114;50.970;4.962;2022-11-20T03:37:31;30.05;;;14.88;;
19903;SDS011;10114;50.970;4.962;2022-11-20T03:39:57;33.78;;;16.25;;
19903;SDS011;10114;50.970;4.962;2022-11-20T03:42:23;30.90;;;15.10;;
19903;SDS011;10114;50.970;4.962;2022-11-20T03:45:08;28.25;;;14.40;;
19903;SDS011;10114;50.970;4.962;2022-11-20T03:47:34;33.05;;;15.63;;
19903;SDS011;10114;50.970;4.962;2022-11-20T03:50:00;30.63;;;14.88;;
19903;SDS011;10114;50.970;4.962;2022-11-20T03:52:26;33.10;;;16.17;;
19903;SDS011;10114;50.970;4.962;2022-11-20T03:54:52;31.48;;;15.75;;
19903;SDS011;10114;50.970;4.962;2022-11-20T03:57:18;37.00;;;16.85;;
19903;SDS011;10114;50.970;4.962;2022-11-20T03:59:44;32.25;;;16.15;;
19903;SDS011;10114;50.970;4.962;2022-11-20T04:02:10;34.58;;;16.17;;
19903;SDS011;10114;50.970;4.962;2022-11-20T04:04:36;31.40;;;15.25;;
19903;SDS011;10114;50.970;4.962;2022-11-20T04:07:02;35.15;;;16.33;;
19903;SDS011;10114;50.970;4.962;2022-11-20T04:09:28;33.35;;;16.77;;
19903;SDS011;10114;50.970;4.962;2022-11-20T04:11:54;35.13;;;16.65;;
19903;SDS011;10114;50.970;4.962;2022-11-20T04:14:20;34.58;;;16.33;;
19903;SDS011;10114;50.970;4.962;2022-11-20T04:16:46;30.58;;;15.48;;
19903;SDS011;10114;50.970;4.962;2022-11-20T04:19:13;36.05;;;15.95;;
19903;SDS011;10114;50.970;4.962;2022-11-20T04:21:40;35.58;;;15.93;;
19903;SDS011;10114;50.970;4.962;2022-11-20T04:24:06;34.40;;;16.30;;
19903;SDS011;10114;50.970;4.962;2022-11-20T04:26:33;35.45;;;16.40;;
19903;SDS011;10114;50.970;4.962;2022-11-20T04:28:59;39.55;;;16.27;;
19903;SDS011;10114;50.970;4.962;2022-11-20T04:31:31;34.97;;;16.27;;
19903;SDS011;10114;50.970;4.962;2022-11-20T04:34:00;40.42;;;17.48;;
19903;SDS011;10114;50.970;4.962;2022-11-20T04:36:27;38.95;;;17.08;;
19903;SDS011;10114;50.970;4.962;2022-11-20T04:38:54;41.75;;;18.40;;
19903;SDS011;10114;50.970;4.962;2022-11-20T04:41:21;42.33;;;18.60;;
19903;SDS011;10114;50.970;4.962;2022-11-20T04:43:48;39.72;;;18.42;;
19903;SDS011;10114;50.970;4.962;2022-11-20T04:46:14;44.38;;;18.95;;
19903;SDS011;10114;50.970;4.962;2022-11-20T04:48:40;43.05;;;17.95;;
19903;SDS011;10114;50.970;4.962;2022-11-20T04:51:06;46.67;;;18.35;;
19903;SDS011;10114;50.970;4.962;2022-11-20T04:53:32;51.22;;;19.75;;
19903;SDS011;10114;50.970;4.962;2022-11-20T04:55:59;48.13;;;18.88;;
19903;SDS011;10114;50.970;4.962;2022-11-20T04:58:26;51.03;;;21.35;;
19903;SDS011;10114;50.970;4.962;2022-11-20T05:00:52;52.92;;;20.60;;
19903;SDS011;10114;50.970;4.962;2022-11-20T05:03:18;49.47;;;20.67;;
19903;SDS011;10114;50.970;4.962;2022-11-20T05:05:44;51.70;;;21.17;;
19903;SDS011;10114;50.970;4.962;2022-11-20T05:08:10;51.95;;;21.15;;
19903;SDS011;10114;50.970;4.962;2022-11-20T05:10:36;51.42;;;20.52;;
19903;SDS011;10114;50.970;4.962;2022-11-20T05:13:02;57.25;;;23.17;;
19903;SDS011;10114;50.970;4.962;2022-11-20T05:15:28;53.88;;;21.17;;
19903;SDS011;10114;50.970;4.962;2022-11-20T05:17:54;52.03;;;21.45;;
19903;SDS011;10114;50.970;4.962;2022-11-20T05:20:20;56.08;;;20.45;;
19903;SDS011;10114;50.970;4.962;2022-11-20T05:22:46;57.47;;;21.67;;
19903;SDS011;10114;50.970;4.962;2022-11-20T05:25:12;51.03;;;20.85;;
19903;SDS011;10114;50.970;4.962;2022-11-20T05:27:38;50.55;;;21.67;;
19903;SDS011;10114;50.970;4.962;2022-11-20T05:30:04;51.10;;;20.50;;
19903;SDS011;10114;50.970;4.962;2022-11-20T05:32:31;52.78;;;21.75;;
19903;SDS011;10114;50.970;4.962;2022-11-20T05:34:57;53.92;;;21.45;;
19903;SDS011;10114;50.970;4.962;2022-11-20T05:37:23;51.90;;;20.63;;
19903;SDS011;10114;50.970;4.962;2022-11-20T05:39:49;56.60;;;21.83;;
19903;SDS011;10114;50.970;4.962;2022-11-20T05:42:15;52.60;;;20.00;;
19903;SDS011;10114;50.970;4.962;2022-11-20T05:44:56;47.17;;;21.52;;
19903;SDS011;10114;50.970;4.962;2022-11-20T05:47:22;52.88;;;21.98;;
19903;SDS011;10114;50.970;4.962;2022-11-20T05:49:48;50.95;;;20.10;;
19903;SDS011;10114;50.970;4.962;2022-11-20T05:52:14;53.13;;;20.88;;
19903;SDS011;10114;50.970;4.962;2022-11-20T05:54:41;47.97;;;19.77;;
19903;SDS011;10114;50.970;4.962;2022-11-20T05:57:07;57.88;;;21.85;;
19903;SDS011;10114;50.970;4.962;2022-11-20T05:59:33;47.20;;;21.08;;
19903;SDS011;10114;50.970;4.962;2022-11-20T06:01:59;49.90;;;20.13;;
19903;SDS011;10114;50.970;4.962;2022-11-20T06:04:25;44.75;;;19.05;;
19903;SDS011;10114;50.970;4.962;2022-11-20T06:06:51;52.08;;;20.13;;
19903;SDS011;10114;50.970;4.962;2022-11-20T06:09:17;50.35;;;20.20;;
19903;SDS011;10114;50.970;4.962;2022-11-20T06:11:43;44.78;;;20.73;;
19903;SDS011;10114;50.970;4.962;2022-11-20T06:14:09;49.80;;;20.25;;
19903;SDS011;10114;50.970;4.962;2022-11-20T06:16:35;50.90;;;20.52;;
19903;SDS011;10114;50.970;4.962;2022-11-20T06:19:01;49.88;;;20.42;;
19903;SDS011;10114;50.970;4.962;2022-11-20T06:21:27;51.88;;;20.75;;
19903;SDS011;10114;50.970;4.962;2022-11-20T06:23:53;53.22;;;22.38;;
19903;SDS011;10114;50.970;4.962;2022-11-20T06:26:20;52.15;;;20.50;;
19903;SDS011;10114;50.970;4.962;2022-11-20T06:28:46;48.25;;;19.40;;
19903;SDS011;10114;50.970;4.962;2022-11-20T06:31:13;50.83;;;20.85;;
19903;SDS011;10114;50.970;4.962;2022-11-20T06:33:40;45.90;;;18.75;;
19903;SDS011;10114;50.970;4.962;2022-11-20T06:36:06;50.17;;;20.27;;
19903;SDS011;10114;50.970;4.962;2022-11-20T06:38:33;46.42;;;18.52;;
19903;SDS011;10114;50.970;4.962;2022-11-20T06:40:59;46.00;;;19.35;;
19903;SDS011;10114;50.970;4.962;2022-11-20T06:43:25;43.65;;;19.35;;
19903;SDS011;10114;50.970;4.962;2022-11-20T06:45:54;51.28;;;19.77;;
19903;SDS011;10114;50.970;4.962;2022-11-20T06:48:21;49.38;;;20.23;;
19903;SDS011;10114;50.970;4.962;2022-11-20T06:50:47;49.15;;;20.00;;
19903;SDS011;10114;50.970;4.962;2022-11-20T06:53:13;50.85;;;20.00;;
19903;SDS011;10114;50.970;4.962;2022-11-20T06:55:42;51.00;;;20.55;;
19903;SDS011;10114;50.970;4.962;2022-11-20T06:58:09;44.75;;;18.33;;
19903;SDS011;10114;50.970;4.962;2022-11-20T07:00:35;47.38;;;19.23;;
19903;SDS011;10114;50.970;4.962;2022-11-20T07:03:05;45.58;;;19.13;;
19903;SDS011;10114;50.970;4.962;2022-11-20T07:05:31;43.33;;;18.17;;
19903;SDS011;10114;50.970;4.962;2022-11-20T07:07:57;51.10;;;19.65;;
19903;SDS011;10114;50.970;4.962;2022-11-20T07:10:23;45.63;;;19.02;;
19903;SDS011;10114;50.970;4.962;2022-11-20T07:12:50;53.53;;;19.35;;
19903;SDS011;10114;50.970;4.962;2022-11-20T07:15:16;47.85;;;19.40;;
19903;SDS011;10114;50.970;4.962;2022-11-20T07:17:42;48.03;;;19.10;;
19903;SDS011;10114;50.970;4.962;2022-11-20T07:20:08;47.92;;;18.77;;
19903;SDS011;10114;50.970;4.962;2022-11-20T07:22:35;49.95;;;19.40;;
19903;SDS011;10114;50.970;4.962;2022-11-20T07:25:01;51.47;;;19.55;;
19903;SDS011;10114;50.970;4.962;2022-11-20T07:27:27;48.15;;;19.58;;
19903;SDS011;10114;50.970;4.962;2022-11-20T07:29:53;50.08;;;20.02;;
19903;SDS011;10114;50.970;4.962;2022-11-20T07:32:19;43.72;;;17.95;;
19903;SDS011;10114;50.970;4.962;2022-11-20T07:34:45;47.95;;;19.98;;
19903;SDS011;10114;50.970;4.962;2022-11-20T07:37:11;52.45;;;21.13;;
19903;SDS011;10114;50.970;4.962;2022-11-20T07:39:37;41.40;;;19.13;;
19903;SDS011;10114;50.970;4.962;2022-11-20T07:42:03;48.28;;;21.33;;
19903;SDS011;10114;50.970;4.962;2022-11-20T07:44:29;49.97;;;21.30;;
19903;SDS011;10114;50.970;4.962;2022-11-20T07:46:55;46.28;;;20.40;;
19903;SDS011;10114;50.970;4.962;2022-11-20T07:49:21;46.83;;;20.00;;
19903;SDS011;10114;50.970;4.962;2022-11-20T07:51:49;54.13;;;22.23;;
19903;SDS011;10114;50.970;4.962;2022-11-20T07:54:16;47.10;;;19.67;;
19903;SDS011;10114;50.970;4.962;2022-11-20T07:56:42;49.10;;;20.75;;
19903;SDS011;10114;50.970;4.962;2022-11-20T07:59:08;47.38;;;20.70;;
19903;SDS011;10114;50.970;4.962;2022-11-20T08:01:34;42.50;;;18.25;;
19903;SDS011;10114;50.970;4.962;2022-11-20T08:04:00;50.97;;;19.52;;
19903;SDS011;10114;50.970;4.962;2022-11-20T08:06:26;46.80;;;19.20;;
19903;SDS011;10114;50.970;4.962;2022-11-20T08:08:52;52.05;;;19.35;;
19903;SDS011;10114;50.970;4.962;2022-11-20T08:11:18;45.67;;;19.48;;
19903;SDS011;10114;50.970;4.962;2022-11-20T08:14:02;49.22;;;20.60;;
19903;SDS011;10114;50.970;4.962;2022-11-20T08:16:45;50.03;;;20.08;;
19903;SDS011;10114;50.970;4.962;2022-11-20T08:19:11;47.88;;;19.30;;
19903;SDS011;10114;50.970;4.962;2022-11-20T08:21:37;44.28;;;19.55;;
19903;SDS011;10114;50.970;4.962;2022-11-20T08:24:04;46.92;;;19.90;;
19903;SDS011;10114;50.970;4.962;2022-11-20T08:26:30;47.08;;;18.80;;
19903;SDS011;10114;50.970;4.962;2022-11-20T08:28:56;46.97;;;18.40;;
19903;SDS011;10114;50.970;4.962;2022-11-20T08:31:23;49.50;;;19.75;;
19903;SDS011;10114;50.970;4.962;2022-11-20T08:33:49;48.67;;;21.08;;
19903;SDS011;10114;50.970;4.962;2022-11-20T08:36:16;51.33;;;19.95;;
19903;SDS011;10114;50.970;4.962;2022-11-20T08:38:42;46.85;;;18.88;;
19903;SDS011;10114;50.970;4.962;2022-11-20T08:41:08;49.35;;;19.85;;
19903;SDS011;10114;50.970;4.962;2022-11-20T08:43:49;49.45;;;19.08;;
19903;SDS011;10114;50.970;4.962;2022-11-20T08:46:16;52.35;;;20.15;;
19903;SDS011;10114;50.970;4.962;2022-11-20T08:48:42;53.55;;;19.88;;
19903;SDS011;10114;50.970;4.962;2022-11-20T08:51:09;53.80;;;20.38;;
19903;SDS011;10114;50.970;4.962;2022-11-20T08:53:35;50.17;;;19.35;;
19903;SDS011;10114;50.970;4.962;2022-11-20T08:56:01;59.75;;;21.95;;
19903;SDS011;10114;50.970;4.962;2022-11-20T08:58:27;57.08;;;21.25;;
19903;SDS011;10114;50.970;4.962;2022-11-20T09:00:53;61.13;;;20.67;;
19903;SDS011;10114;50.970;4.962;2022-11-20T09:03:19;55.83;;;20.10;;
19903;SDS011;10114;50.970;4.962;2022-11-20T09:05:45;58.70;;;19.92;;
19903;SDS011;10114;50.970;4.962;2022-11-20T09:08:11;46.28;;;18.10;;
19903;SDS011;10114;50.970;4.962;2022-11-20T09:10:37;48.05;;;17.55;;
19903;SDS011;10114;50.970;4.962;2022-11-20T09:13:05;48.13;;;19.33;;
19903;SDS011;10114;50.970;4.962;2022-11-20T09:15:31;49.47;;;19.65;;
19903;SDS011;10114;50.970;4.962;2022-11-20T09:17:58;49.13;;;19.75;;
19903;SDS011;10114;50.970;4.962;2022-11-20T09:20:25;52.15;;;20.02;;
19903;SDS011;10114;50.970;4.962;2022-11-20T09:22:51;44.17;;;19.45;;
19903;SDS011;10114;50.970;4.962;2022-11-20T09:25:17;51.70;;;19.15;;
19903;SDS011;10114;50.970;4.962;2022-11-20T09:27:43;52.05;;;20.02;;
19903;SDS011;10114;50.970;4.962;2022-11-20T09:30:11;50.90;;;20.45;;
19903;SDS011;10114;50.970;4.962;2022-11-20T09:32:41;58.83;;;21.42;;
19903;SDS011;10114;50.970;4.962;2022-11-20T09:35:07;53.83;;;19.30;;
19903;SDS011;10114;50.970;4.962;2022-11-20T09:37:33;51.42;;;20.02;;
19903;SDS011;10114;50.970;4.962;2022-11-20T09:39:59;63.53;;;21.92;;
19903;SDS011;10114;50.970;4.962;2022-11-20T09:42:28;58.03;;;20.05;;
19903;SDS011;10114;50.970;4.962;2022-11-20T09:45:20;53.75;;;20.98;;
19903;SDS011;10114;50.970;4.962;2022-11-20T09:51:04;53.97;;;20.98;;
19903;SDS011;10114;50.970;4.962;2022-11-20T09:55:32;53.85;;;19.80;;
19903;SDS011;10114;50.970;4.962;2022-11-20T09:57:59;61.78;;;20.65;;
19903;SDS011;10114;50.970;4.962;2022-11-20T10:00:26;60.55;;;21.02;;
19903;SDS011;10114;50.970;4.962;2022-11-20T10:05:19;53.90;;;18.83;;
19903;SDS011;10114;50.970;4.962;2022-11-20T10:07:55;54.25;;;20.48;;
19903;SDS011;10114;50.970;4.962;2022-11-20T10:18:09;56.70;;;21.02;;
19903;SDS011;10114;50.970;4.962;2022-11-20T10:20:47;57.40;;;19.10;;
19903;SDS011;10114;50.970;4.962;2022-11-20T10:26:17;58.20;;;19.63;;
19903;SDS011;10114;50.970;4.962;2022-11-20T10:28:48;46.13;;;18.90;;
19903;SDS011;10114;50.970;4.962;2022-11-20T10:33:51;58.58;;;21.52;;
19903;SDS011;10114;50.970;4.962;2022-11-20T10:36:19;59.60;;;19.08;;
19903;SDS011;10114;50.970;4.962;2022-11-20T10:38:48;54.55;;;18.73;;
19903;SDS011;10114;50.970;4.962;2022-11-20T10:41:17;51.75;;;18.85;;
19903;SDS011;10114;50.970;4.962;2022-11-20T10:43:53;53.78;;;18.77;;
19903;SDS011;10114;50.970;4.962;2022-11-20T10:46:22;55.45;;;18.48;;
19903;SDS011;10114;50.970;4.962;2022-11-20T10:48:49;56.20;;;20.35;;
19903;SDS011;10114;50.970;4.962;2022-11-20T10:51:33;48.55;;;19.80;;
19903;SDS011;10114;50.970;4.962;2022-11-20T11:01:42;54.38;;;17.67;;
19903;SDS011;10114;50.970;4.962;2022-11-20T11:04:15;47.85;;;18.45;;
19903;SDS011;10114;50.970;4.962;2022-11-20T11:06:45;54.63;;;19.77;;
19903;SDS011;10114;50.970;4.962;2022-11-20T11:09:17;51.38;;;18.25;;
19903;SDS011;10114;50.970;4.962;2022-11-20T11:11:46;56.13;;;18.73;;
19903;SDS011;10114;50.970;4.962;2022-11-20T11:14:13;48.58;;;19.10;;
19903;SDS011;10114;50.970;4.962;2022-11-20T11:16:49;48.03;;;18.40;;
19903;SDS011;10114;50.970;4.962;2022-11-20T11:19:16;46.38;;;19.25;;
19903;SDS011;10114;50.970;4.962;2022-11-20T11:22:00;49.17;;;18.63;;
19903;SDS011;10114;50.970;4.962;2022-11-20T11:24:27;42.05;;;17.98;;
19903;SDS011;10114;50.970;4.962;2022-11-20T11:26:57;50.42;;;17.92;;
19903;SDS011;10114;50.970;4.962;2022-11-20T11:29:24;44.67;;;17.00;;
19903;SDS011;10114;50.970;4.962;2022-11-20T11:32:07;47.55;;;18.33;;
19903;SDS011;10114;50.970;4.962;2022-11-20T11:34:34;44.28;;;17.15;;
19903;SDS011;10114;50.970;4.962;2022-11-20T11:37:00;45.13;;;16.90;;
19903;SDS011;10114;50.970;4.962;2022-11-20T11:39:28;46.03;;;17.95;;
19903;SDS011;10114;50.970;4.962;2022-11-20T11:41:55;43.42;;;16.42;;
19903;SDS011;10114;50.970;4.962;2022-11-20T11:44:24;43.50;;;16.95;;
19903;SDS011;10114;50.970;4.962;2022-11-20T11:52:27;35.28;;;15.77;;
19903;SDS011;10114;50.970;4.962;2022-11-20T11:55:01;37.42;;;16.17;;
19903;SDS011;10114;50.970;4.962;2022-11-20T11:57:32;37.05;;;15.15;;
19903;SDS011;10114;50.970;4.962;2022-11-20T12:00:05;29.40;;;12.65;;
19903;SDS011;10114;50.970;4.962;2022-11-20T12:02:34;31.63;;;12.82;;
19903;SDS011;10114;50.970;4.962;2022-11-20T12:05:03;28.35;;;11.93;;
19903;SDS011;10114;50.970;4.962;2022-11-20T12:07:41;26.13;;;10.77;;
19903;SDS011;10114;50.970;4.962;2022-11-20T12:10:55;27.27;;;10.90;;
19903;SDS011;10114;50.970;4.962;2022-11-20T12:12:55;19.83;;;9.73;;
19903;SDS011;10114;50.970;4.962;2022-11-20T12:15:27;18.27;;;7.28;;
19903;SDS011;10114;50.970;4.962;2022-11-20T12:17:54;13.02;;;5.85;;
19903;SDS011;10114;50.970;4.962;2022-11-20T12:20:22;13.85;;;5.70;;
19903;SDS011;10114;50.970;4.962;2022-11-20T12:23:05;10.90;;;4.30;;
19903;SDS011;10114;50.970;4.962;2022-11-20T12:25:35;11.00;;;3.47;;
19903;SDS011;10114;50.970;4.962;2022-11-20T12:30:33;7.97;;;3.30;;
19903;SDS011;10114;50.970;4.962;2022-11-20T12:40:44;11.00;;;2.75;;
19903;SDS011;10114;50.970;4.962;2022-11-20T12:43:20;8.43;;;3.88;;
19903;SDS011;10114;50.970;4.962;2022-11-20T12:46:21;6.03;;;2.58;;
19903;SDS011;10114;50.970;4.962;2022-11-20T12:49:04;9.90;;;3.47;;
19903;SDS011;10114;50.970;4.962;2022-11-20T12:51:34;6.93;;;2.88;;
19903;SDS011;10114;50.970;4.962;2022-11-20T12:57:01;9.15;;;3.38;;
19903;SDS011;10114;50.970;4.962;2022-11-20T13:02:24;9.65;;;2.90;;
19903;SDS011;10114;50.970;4.962;2022-11-20T13:04:55;8.60;;;3.40;;
19903;SDS011;10114;50.970;4.962;2022-11-20T13:07:25;11.95;;;4.13;;
19903;SDS011;10114;50.970;4.962;2022-11-20T13:09:53;6.32;;;2.63;;
19903;SDS011;10114;50.970;4.962;2022-11-20T13:20:05;6.63;;;2.17;;
19903;SDS011;10114;50.970;4.962;2022-11-20T13:22:45;6.88;;;2.13;;
19903;SDS011;10114;50.970;4.962;2022-11-20T13:27:50;6.90;;;4.07;;
19903;SDS011;10114;50.970;4.962;2022-11-20T13:30:17;8.43;;;2.70;;
19903;SDS011;10114;50.970;4.962;2022-11-20T13:32:48;11.05;;;3.17;;
19903;SDS011;10114;50.970;4.962;2022-11-20T13:35:22;12.63;;;3.40;;
19903;SDS011;10114;50.970;4.962;2022-11-20T13:37:49;8.85;;;2.70;;
19903;SDS011;10114;50.970;4.962;2022-11-20T13:40:24;7.95;;;3.05;;
19903;SDS011;10114;50.970;4.962;2022-11-20T13:45:27;10.48;;;2.70;;
19903;SDS011;10114;50.970;4.962;2022-11-20T13:47:54;11.90;;;2.90;;
19903;SDS011;10114;50.970;4.962;2022-11-20T13:50:38;6.18;;;2.42;;
19903;SDS011;10114;50.970;4.962;2022-11-20T13:53:23;9.20;;;2.63;;
19903;SDS011;10114;50.970;4.962;2022-11-20T13:56:14;6.20;;;2.30;;
19903;SDS011;10114;50.970;4.962;2022-11-20T14:01:47;10.15;;;3.00;;
19903;SDS011;10114;50.970;4.962;2022-11-20T14:04:15;11.70;;;3.58;;
19903;SDS011;10114;50.970;4.962;2022-11-20T14:06:44;13.40;;;3.22;;
19903;SDS011;10114;50.970;4.962;2022-11-20T14:09:32;5.63;;;2.33;;
19903;SDS011;10114;50.970;4.962;2022-11-20T14:11:57;7.57;;;2.85;;
19903;SDS011;10114;50.970;4.962;2022-11-20T14:14:24;8.95;;;3.22;;
19903;SDS011;10114;50.970;4.962;2022-11-20T14:16:51;13.05;;;3.38;;
19903;SDS011;10114;50.970;4.962;2022-11-20T14:25:18;8.18;;;2.58;;
19903;SDS011;10114;50.970;4.962;2022-11-20T14:27:50;13.50;;;3.17;;
19903;SDS011;10114;50.970;4.962;2022-11-20T14:30:17;8.30;;;3.78;;
19903;SDS011;10114;50.970;4.962;2022-11-20T14:32:44;7.75;;;3.63;;
19903;SDS011;10114;50.970;4.962;2022-11-20T14:35:24;12.52;;;2.70;;
19903;SDS011;10114;50.970;4.962;2022-11-20T14:37:51;10.02;;;3.20;;
19903;SDS011;10114;50.970;4.962;2022-11-20T14:42:50;8.45;;;2.70;;
19903;SDS011;10114;50.970;4.962;2022-11-20T14:45:16;10.43;;;3.03;;
19903;SDS011;10114;50.970;4.962;2022-11-20T14:47:42;6.68;;;2.55;;
19903;SDS011;10114;50.970;4.962;2022-11-20T14:50:19;8.70;;;4.35;;
19903;SDS011;10114;50.970;4.962;2022-11-20T14:52:54;8.27;;;2.60;;
19903;SDS011;10114;50.970;4.962;2022-11-20T14:57:57;8.93;;;3.08;;
19903;SDS011;10114;50.970;4.962;2022-11-20T15:00:23;7.15;;;3.10;;
19903;SDS011;10114;50.970;4.962;2022-11-20T15:02:50;11.88;;;3.88;;
19903;SDS011;10114;50.970;4.962;2022-11-20T15:05:17;5.50;;;2.65;;
19903;SDS011;10114;50.970;4.962;2022-11-20T15:07:44;7.70;;;3.38;;
19903;SDS011;10114;50.970;4.962;2022-11-20T15:12:38;4.80;;;2.50;;
19903;SDS011;10114;50.970;4.962;2022-11-20T15:15:06;6.70;;;3.30;;
19903;SDS011;10114;50.970;4.962;2022-11-20T15:17:32;8.80;;;3.00;;
19903;SDS011;10114;50.970;4.962;2022-11-20T15:20:02;5.88;;;2.83;;
19903;SDS011;10114;50.970;4.962;2022-11-20T15:22:29;8.35;;;2.60;;
19903;SDS011;10114;50.970;4.962;2022-11-20T15:24:55;6.90;;;3.78;;
19903;SDS011;10114;50.970;4.962;2022-11-20T15:27:21;8.13;;;4.05;;
19903;SDS011;10114;50.970;4.962;2022-11-20T15:29:47;7.68;;;3.30;;
19903;SDS011;10114;50.970;4.962;2022-11-20T15:32:13;8.02;;;3.50;;
19903;SDS011;10114;50.970;4.962;2022-11-20T15:34:39;6.50;;;3.33;;
19903;SDS011;10114;50.970;4.962;2022-11-20T15:37:05;7.05;;;3.97;;
19903;SDS011;10114;50.970;4.962;2022-11-20T15:39:31;9.77;;;4.68;;
19903;SDS011;10114;50.970;4.962;2022-11-20T15:41:57;7.40;;;4.00;;
19903;SDS011;10114;50.970;4.962;2022-11-20T15:44:23;6.60;;;3.20;;
19903;SDS011;10114;50.970;4.962;2022-11-20T15:46:49;4.82;;;3.20;;
19903;SDS011;10114;50.970;4.962;2022-11-20T15:49:16;8.40;;;3.30;;
19903;SDS011;10114;50.970;4.962;2022-11-20T15:51:44;7.60;;;3.25;;
19903;SDS011;10114;50.970;4.962;2022-11-20T15:54:19;8.55;;;3.92;;
19903;SDS011;10114;50.970;4.962;2022-11-20T15:56:46;8.40;;;4.35;;